Time;durP1;ratioP1;P1;durP2;ratioP2;P2;SDS_P1;SDS_P2;PMS_P1;PMS_P2;Temp;Humidity;BMP_temperature;BMP_pressure;BME280_temperature;BME280_humidity;BME280_pressure;Samples;Min_cycle;Max_cycle;Signal;HPM_P1;HPM_P2
2024/03/07 00:00:47;;;;;;;25.15;16.70;;;7.00;99.90;;;;;;5042533;28;20147;-32
2024/03/07 00:03:13;;;;;;;24.33;16.85;;;6.90;99.90;;;;;;5040713;28;20118;-35
2024/03/07 00:05:39;;;;;;;25.25;17.63;;;6.90;99.90;;;;;;5041997;28;20137;-35
2024/03/07 00:08:05;;;;;;;23.13;16.02;;;6.90;99.90;;;;;;5042526;28;20740;-35
2024/03/07 00:10:31;;;;;;;24.70;16.88;;;6.90;99.90;;;;;;5042272;28;20025;-36
2024/03/07 00:12:57;;;;;;;25.67;16.83;;;6.90;99.90;;;;;;5043628;28;20029;-34
2024/03/07 00:15:22;;;;;;;26.52;18.27;;;6.90;99.90;;;;;;5040847;28;20032;-35
2024/03/07 00:17:48;;;;;;;25.98;17.13;;;6.90;99.90;;;;;;5042657;28;20025;-37
2024/03/07 00:20:14;;;;;;;23.10;16.70;;;6.80;99.90;;;;;;5042557;28;20025;-36
2024/03/07 00:22:41;;;;;;;23.45;16.75;;;6.80;99.90;;;;;;5042701;28;20020;-30
2024/03/07 00:25:08;;;;;;;26.75;17.92;;;6.80;99.90;;;;;;5041575;28;20124;-36
2024/03/07 00:27:35;;;;;;;27.85;18.63;;;6.80;99.90;;;;;;5042745;28;20053;-36
2024/03/07 00:30:01;;;;;;;24.52;16.77;;;6.80;99.90;;;;;;5041388;28;20033;-33
2024/03/07 00:32:29;;;;;;;24.52;16.27;;;6.80;99.90;;;;;;5040930;28;20119;-31
2024/03/07 00:34:56;;;;;;;22.70;15.45;;;6.70;99.90;;;;;;5042713;28;20443;-35
2024/03/07 00:37:21;;;;;;;24.73;17.13;;;6.70;99.90;;;;;;5041182;28;20112;-32
2024/03/07 00:39:47;;;;;;;26.95;17.73;;;6.70;99.90;;;;;;5041520;28;20090;-31
2024/03/07 00:42:12;;;;;;;26.67;18.15;;;6.70;99.90;;;;;;5041952;28;20100;-35
2024/03/07 00:44:38;;;;;;;28.33;19.15;;;6.70;99.90;;;;;;5041115;28;20041;-35
2024/03/07 00:47:04;;;;;;;29.90;19.40;;;6.70;99.90;;;;;;5042701;28;20123;-34
2024/03/07 00:49:30;;;;;;;31.88;20.63;;;6.60;99.90;;;;;;5040816;28;20434;-35
2024/03/07 00:51:57;;;;;;;33.25;21.70;;;6.60;99.90;;;;;;5042669;28;20484;-35
2024/03/07 00:54:22;;;;;;;32.92;22.13;;;6.60;99.90;;;;;;5041435;28;20057;-36
2024/03/07 00:56:49;;;;;;;31.17;21.75;;;6.60;99.90;;;;;;5041580;28;20145;-32
2024/03/07 00:59:15;;;;;;;33.88;22.42;;;6.60;99.90;;;;;;5042224;28;20029;-32
2024/03/07 01:01:41;;;;;;;35.03;23.25;;;6.60;99.90;;;;;;5040401;28;20036;-36
2024/03/07 01:04:07;;;;;;;40.53;27.05;;;6.60;99.90;;;;;;5042551;28;20017;-36
2024/03/07 01:06:33;;;;;;;37.53;24.10;;;6.60;99.90;;;;;;5042353;28;20105;-30
2024/03/07 01:08:59;;;;;;;36.08;24.10;;;6.50;99.90;;;;;;5041218;28;20423;-34
2024/03/07 01:11:24;;;;;;;34.40;23.45;;;6.50;99.90;;;;;;5040430;28;20041;-34
2024/03/07 01:13:50;;;;;;;35.22;23.92;;;6.50;99.90;;;;;;5041756;28;20025;-33
2024/03/07 01:16:16;;;;;;;32.60;22.38;;;6.50;99.90;;;;;;5042195;28;20471;-33
2024/03/07 01:18:41;;;;;;;33.53;23.80;;;6.50;99.90;;;;;;5041720;28;20478;-36
2024/03/07 01:21:08;;;;;;;32.13;21.80;;;6.50;99.90;;;;;;5039954;28;20025;-32
2024/03/07 01:23:34;;;;;;;37.88;24.95;;;6.40;99.90;;;;;;5040131;28;20038;-34
2024/03/07 01:25:59;;;;;;;35.83;23.90;;;6.40;99.90;;;;;;5039762;28;20052;-34
2024/03/07 01:28:36;;;;;;;36.75;24.73;;;6.40;99.90;;;;;;5040948;28;20147;-31
2024/03/07 01:31:02;;;;;;;34.13;22.30;;;6.40;99.90;;;;;;5041071;28;20051;-34
2024/03/07 01:33:28;;;;;;;35.13;21.98;;;6.40;99.90;;;;;;5040899;28;20476;-36
2024/03/07 01:35:54;;;;;;;34.58;22.70;;;6.40;99.90;;;;;;5041111;28;20086;-32
2024/03/07 01:38:19;;;;;;;37.15;23.92;;;6.40;99.90;;;;;;5041054;28;20574;-33
2024/03/07 01:40:48;;;;;;;36.90;24.75;;;6.40;99.90;;;;;;5040537;28;20388;-35
2024/03/07 01:43:14;;;;;;;33.85;22.83;;;6.40;99.90;;;;;;5040689;28;20017;-37
2024/03/07 01:45:39;;;;;;;36.25;24.23;;;6.40;99.90;;;;;;5040752;28;20059;-35
2024/03/07 01:48:08;;;;;;;35.50;23.00;;;6.40;99.90;;;;;;5040223;28;20103;-36
2024/03/07 01:50:38;;;;;;;36.90;23.90;;;6.40;99.90;;;;;;5040754;28;20029;-32
2024/03/07 01:53:06;;;;;;;35.97;23.83;;;6.40;99.90;;;;;;5039936;28;20041;-37
2024/03/07 01:55:32;;;;;;;42.45;26.90;;;6.40;99.90;;;;;;5041892;28;20036;-34
2024/03/07 01:58:00;;;;;;;36.83;24.95;;;6.40;99.90;;;;;;5040370;28;20420;-35
2024/03/07 02:00:25;;;;;;;39.35;25.48;;;6.40;99.90;;;;;;5040219;28;20178;-32
2024/03/07 02:02:53;;;;;;;38.28;25.02;;;6.40;99.90;;;;;;5038328;28;20751;-32
2024/03/07 02:05:20;;;;;;;31.58;22.50;;;6.40;99.90;;;;;;5039324;28;20037;-33
2024/03/07 02:07:46;;;;;;;37.95;26.08;;;6.40;99.90;;;;;;5040652;28;20052;-35
2024/03/07 02:10:11;;;;;;;37.38;24.67;;;6.40;99.90;;;;;;5040478;28;20037;-34
2024/03/07 02:12:37;;;;;;;39.90;24.38;;;6.40;99.90;;;;;;5039545;28;20175;-32
2024/03/07 02:15:03;;;;;;;38.28;24.23;;;6.40;99.90;;;;;;5040310;28;20808;-33
2024/03/07 02:17:28;;;;;;;33.03;22.48;;;6.40;99.90;;;;;;5038873;28;20476;-35
2024/03/07 02:19:54;;;;;;;33.25;23.65;;;6.40;99.90;;;;;;5040443;28;20025;-35
2024/03/07 02:22:20;;;;;;;33.50;22.88;;;6.40;99.90;;;;;;5039939;28;20021;-32
2024/03/07 02:24:46;;;;;;;36.55;25.58;;;6.30;99.90;;;;;;5040071;28;20031;-34
2024/03/07 02:27:14;;;;;;;36.30;24.02;;;6.30;99.90;;;;;;5040398;28;20020;-33
2024/03/07 02:29:40;;;;;;;37.38;23.98;;;6.30;99.90;;;;;;5040315;28;20033;-37
2024/03/07 02:32:09;;;;;;;36.35;22.65;;;6.30;99.90;;;;;;5037292;28;20052;-36
2024/03/07 02:34:38;;;;;;;35.75;23.80;;;6.30;99.90;;;;;;5040309;28;20493;-32
2024/03/07 02:37:04;;;;;;;38.38;24.90;;;6.30;99.90;;;;;;5039805;28;20060;-32
2024/03/07 02:39:30;;;;;;;34.63;22.48;;;6.30;99.90;;;;;;5039667;28;20180;-34
2024/03/07 02:41:58;;;;;;;33.78;23.20;;;6.20;99.90;;;;;;5040713;28;20029;-34
2024/03/07 02:44:24;;;;;;;34.13;22.02;;;6.30;99.90;;;;;;5037423;28;20052;-35
2024/03/07 02:46:52;;;;;;;34.25;22.20;;;6.30;99.90;;;;;;5038859;28;20025;-34
2024/03/07 02:49:21;;;;;;;37.22;25.27;;;6.20;99.90;;;;;;5037911;28;20086;-36
2024/03/07 02:51:47;;;;;;;36.85;25.55;;;6.20;99.90;;;;;;5040608;28;20526;-34
2024/03/07 02:54:16;;;;;;;36.40;23.63;;;6.20;99.90;;;;;;5039446;28;20484;-33
2024/03/07 02:56:45;;;;;;;40.75;26.58;;;6.20;99.90;;;;;;5039461;28;20040;-35
2024/03/07 02:59:13;;;;;;;37.28;24.63;;;6.20;99.90;;;;;;5039602;28;20570;-34
2024/03/07 03:01:39;;;;;;;33.55;23.88;;;6.20;99.90;;;;;;5040087;28;20120;-32
2024/03/07 03:04:04;;;;;;;30.65;21.48;;;6.20;99.90;;;;;;5039543;28;20032;-34
2024/03/07 03:06:30;;;;;;;31.58;22.92;;;6.20;99.90;;;;;;5038335;28;20151;-33
2024/03/07 03:08:55;;;;;;;33.25;23.25;;;6.20;99.90;;;;;;5019907;28;20043;-35
2024/03/07 03:11:21;;;;;;;31.95;22.98;;;6.20;99.90;;;;;;5017864;28;20150;-35
2024/03/07 03:13:49;;;;;;;31.02;21.13;;;6.20;99.90;;;;;;5018317;28;20022;-34
2024/03/07 03:16:15;;;;;;;29.35;20.35;;;6.10;99.90;;;;;;5017304;28;20778;-32
2024/03/07 03:18:41;;;;;;;30.20;20.00;;;6.20;99.90;;;;;;5017654;28;20033;-30
2024/03/07 03:21:07;;;;;;;30.48;20.88;;;6.10;99.90;;;;;;5018590;28;20690;-36
2024/03/07 03:23:36;;;;;;;30.90;20.05;;;6.10;99.90;;;;;;5018017;28;20094;-34
2024/03/07 03:26:01;;;;;;;27.25;18.08;;;6.10;99.90;;;;;;5017970;28;20022;-36
2024/03/07 03:28:27;;;;;;;28.52;19.83;;;6.10;99.90;;;;;;5017609;28;20079;-34
2024/03/07 03:30:52;;;;;;;28.10;19.35;;;6.10;99.90;;;;;;5020165;28;20029;-35
2024/03/07 03:33:20;;;;;;;28.08;18.65;;;6.00;99.90;;;;;;5019714;28;20034;-35
2024/03/07 03:35:46;;;;;;;29.23;19.48;;;6.00;99.90;;;;;;5018724;28;20036;-33
2024/03/07 03:38:12;;;;;;;26.00;17.77;;;6.00;99.90;;;;;;5019720;28;20747;-35
2024/03/07 03:40:38;;;;;;;30.02;19.13;;;6.00;99.90;;;;;;5018303;28;20032;-31
2024/03/07 03:43:03;;;;;;;28.35;18.35;;;6.00;99.90;;;;;;5019195;28;20033;-33
2024/03/07 03:45:30;;;;;;;28.88;19.25;;;6.00;99.90;;;;;;5018614;28;20486;-34
2024/03/07 03:47:57;;;;;;;25.15;18.40;;;5.90;99.90;;;;;;5018538;28;20029;-35
2024/03/07 03:50:23;;;;;;;30.35;20.88;;;5.90;99.90;;;;;;5017876;28;20482;-34
2024/03/07 03:52:48;;;;;;;32.28;20.38;;;5.90;99.90;;;;;;5019940;28;20289;-34
2024/03/07 03:55:17;;;;;;;27.98;19.10;;;5.80;99.90;;;;;;5017914;28;20023;-36
2024/03/07 03:57:44;;;;;;;31.05;20.17;;;5.80;99.90;;;;;;5018803;28;20026;-31
2024/03/07 04:00:14;;;;;;;31.83;20.27;;;5.80;99.90;;;;;;5018771;28;20395;-32
2024/03/07 04:02:44;;;;;;;31.40;20.35;;;5.80;99.90;;;;;;5019029;28;20032;-30
2024/03/07 04:05:11;;;;;;;28.50;18.65;;;5.70;99.90;;;;;;5018970;28;20030;-31
2024/03/07 04:07:37;;;;;;;28.95;19.55;;;5.70;99.90;;;;;;5027840;28;20152;-35
2024/03/07 04:10:04;;;;;;;30.25;19.73;;;5.70;99.90;;;;;;5038198;28;20512;-36
2024/03/07 04:12:30;;;;;;;32.05;21.25;;;5.70;99.90;;;;;;5027658;28;20095;-33
2024/03/07 04:14:58;;;;;;;27.73;19.02;;;5.60;99.90;;;;;;5038752;28;20849;-31
2024/03/07 04:17:24;;;;;;;35.75;22.50;;;5.60;99.90;;;;;;5035635;28;20090;-36
2024/03/07 04:19:51;;;;;;;31.48;22.20;;;5.60;99.90;;;;;;5037769;28;20033;-37
2024/03/07 04:22:18;;;;;;;29.13;19.73;;;5.60;99.90;;;;;;5038789;28;20132;-33
2024/03/07 04:24:45;;;;;;;31.80;20.70;;;5.60;99.90;;;;;;5037084;28;20052;-33
2024/03/07 04:27:11;;;;;;;26.75;19.02;;;5.60;99.90;;;;;;5038785;28;20029;-31
2024/03/07 04:29:36;;;;;;;27.05;17.85;;;5.60;99.90;;;;;;5039132;28;20074;-32
2024/03/07 04:32:03;;;;;;;28.63;18.88;;;5.60;99.90;;;;;;5037669;28;20041;-35
2024/03/07 04:34:30;;;;;;;30.30;19.90;;;5.60;99.90;;;;;;5038756;28;20029;-30
2024/03/07 04:36:58;;;;;;;29.60;19.88;;;5.50;99.90;;;;;;5040502;28;20029;-31
2024/03/07 04:39:27;;;;;;;28.90;18.45;;;5.50;99.90;;;;;;5041848;28;20041;-32
2024/03/07 04:41:54;;;;;;;32.10;19.35;;;5.50;99.90;;;;;;5042909;28;20029;-38
2024/03/07 04:44:22;;;;;;;28.52;20.08;;;5.50;99.90;;;;;;5042487;28;20038;-33
2024/03/07 04:46:55;;;;;;;31.70;21.40;;;5.50;99.90;;;;;;5040961;28;20633;-34
2024/03/07 04:49:23;;;;;;;33.67;23.08;;;5.50;99.90;;;;;;5042672;28;20024;-34
2024/03/07 04:51:49;;;;;;;35.40;23.85;;;5.50;99.90;;;;;;5041532;28;20040;-34
2024/03/07 04:54:14;;;;;;;36.13;23.48;;;5.50;99.90;;;;;;5042421;28;20021;-35
2024/03/07 04:56:40;;;;;;;33.70;23.00;;;5.40;99.90;;;;;;5041463;28;20758;-30
2024/03/07 04:59:06;;;;;;;33.75;21.58;;;5.40;99.90;;;;;;5041725;28;20037;-36
2024/03/07 05:01:32;;;;;;;32.72;21.58;;;5.40;99.90;;;;;;5041847;28;20037;-34
2024/03/07 05:03:57;;;;;;;30.98;20.83;;;5.40;99.90;;;;;;5042670;28;20029;-33
2024/03/07 05:06:23;;;;;;;27.30;19.27;;;5.40;99.90;;;;;;5040212;28;20027;-34
2024/03/07 05:08:48;;;;;;;28.13;19.23;;;5.40;99.90;;;;;;5042166;28;20738;-34
2024/03/07 05:11:14;;;;;;;31.00;19.30;;;5.40;99.90;;;;;;5042638;28;20143;-35
2024/03/07 05:13:42;;;;;;;26.23;17.98;;;5.40;99.90;;;;;;5039198;28;20029;-35
2024/03/07 05:16:08;;;;;;;30.63;21.20;;;5.30;99.90;;;;;;5042007;28;20503;-34
2024/03/07 05:18:33;;;;;;;32.83;22.40;;;5.30;99.90;;;;;;5042560;28;20037;-35
2024/03/07 05:21:34;;;;;;;39.78;25.60;;;5.30;99.90;;;;;;5041363;28;20037;-33
2024/03/07 05:23:48;;;;;;;35.10;22.77;;;5.30;99.90;;;;;;5040888;28;20163;-34
2024/03/07 05:26:14;;;;;;;30.58;21.33;;;5.30;99.90;;;;;;5041521;28;20150;-35
2024/03/07 05:28:40;;;;;;;36.70;24.88;;;5.30;99.90;;;;;;5040560;28;20456;-33
2024/03/07 05:31:05;;;;;;;35.63;23.25;;;5.30;99.90;;;;;;5040530;28;20114;-35
2024/03/07 05:33:31;;;;;;;36.58;24.38;;;5.20;99.90;;;;;;5040289;28;20029;-35
2024/03/07 05:36:13;;;;;;;41.50;24.23;;;5.20;99.90;;;;;;5040933;28;20561;-32
2024/03/07 05:38:39;;;;;;;36.30;23.60;;;5.20;99.90;;;;;;5040321;28;20021;-30
2024/03/07 05:41:08;;;;;;;36.40;23.85;;;5.20;99.90;;;;;;5040650;28;20029;-36
2024/03/07 05:43:34;;;;;;;36.90;24.38;;;5.20;99.90;;;;;;5040660;28;20059;-35
2024/03/07 05:46:00;;;;;;;39.00;25.20;;;5.20;99.90;;;;;;5041590;28;20464;-35
2024/03/07 05:48:26;;;;;;;35.10;23.15;;;5.20;99.90;;;;;;5038926;28;20087;-35
2024/03/07 05:50:52;;;;;;;34.60;24.48;;;5.20;99.90;;;;;;5039362;28;20047;-34
2024/03/07 05:53:18;;;;;;;31.42;21.50;;;5.20;99.90;;;;;;5039940;28;20032;-32
2024/03/07 05:55:43;;;;;;;31.63;20.95;;;5.10;99.90;;;;;;5040215;28;20041;-30
2024/03/07 05:58:10;;;;;;;32.35;21.73;;;5.10;99.90;;;;;;5040712;28;20071;-36
2024/03/07 06:00:37;;;;;;;31.95;21.35;;;5.20;99.90;;;;;;5040323;28;20025;-33
2024/03/07 06:03:04;;;;;;;31.50;21.02;;;5.10;99.90;;;;;;5040568;28;20060;-30
2024/03/07 06:05:30;;;;;;;32.80;21.33;;;5.10;99.90;;;;;;5040747;28;20021;-32
2024/03/07 06:07:56;;;;;;;27.77;19.27;;;5.10;99.90;;;;;;5040347;28;20052;-34
2024/03/07 06:10:25;;;;;;;33.63;22.58;;;5.10;99.90;;;;;;5042544;28;20024;-35
2024/03/07 06:12:52;;;;;;;33.03;23.02;;;5.10;99.90;;;;;;5021286;28;20033;-35
2024/03/07 06:15:18;;;;;;;33.88;23.25;;;5.10;99.90;;;;;;5040395;28;20920;-33
2024/03/07 06:17:46;;;;;;;35.60;24.05;;;5.10;99.90;;;;;;5040156;28;20032;-34
2024/03/07 06:20:22;;;;;;;33.85;23.02;;;5.00;99.90;;;;;;5038503;28;20029;-34
2024/03/07 06:22:54;;;;;;;35.10;23.80;;;5.00;99.90;;;;;;5041158;28;20791;-35
2024/03/07 06:28:10;;;;;;;34.42;24.23;;;5.00;99.90;;;;;;5038928;28;20048;-32
2024/03/07 06:30:46;;;;;;;31.80;22.70;;;4.90;99.90;;;;;;5038953;28;20028;-37
2024/03/07 06:33:12;;;;;;;29.00;19.95;;;4.90;99.90;;;;;;5035566;28;20372;-34
2024/03/07 06:35:38;;;;;;;30.55;19.73;;;4.90;99.90;;;;;;5039404;28;20478;-33
2024/03/07 06:38:10;;;;;;;33.80;21.95;;;4.90;99.90;;;;;;5040117;28;20116;-35
2024/03/07 06:40:36;;;;;;;30.98;21.10;;;4.90;99.90;;;;;;5039826;28;20032;-32
2024/03/07 06:43:12;;;;;;;30.45;21.13;;;4.90;99.90;;;;;;5040818;28;20029;-29
2024/03/07 06:45:38;;;;;;;32.35;21.83;;;4.90;99.90;;;;;;5037840;28;20894;-33
2024/03/07 06:48:08;;;;;;;32.80;22.60;;;4.90;99.90;;;;;;5039394;28;20036;-31
2024/03/07 06:50:37;;;;;;;31.42;21.95;;;4.90;99.90;;;;;;5038447;28;20021;-32
2024/03/07 06:53:03;;;;;;;34.78;22.95;;;4.90;99.90;;;;;;5036365;28;20032;-30
2024/03/07 06:55:29;;;;;;;28.85;20.13;;;4.90;99.90;;;;;;5035839;28;20044;-35
2024/03/07 06:57:54;;;;;;;29.45;21.08;;;4.90;99.90;;;;;;5036268;28;20028;-35
2024/03/07 07:00:23;;;;;;;33.50;22.90;;;4.90;99.90;;;;;;5034794;28;20033;-33
2024/03/07 07:02:50;;;;;;;32.08;21.92;;;4.90;99.90;;;;;;5035935;28;20051;-31
2024/03/07 07:05:18;;;;;;;29.70;20.30;;;4.90;99.90;;;;;;5038038;28;20166;-35
2024/03/07 07:07:47;;;;;;;28.95;19.75;;;4.90;99.90;;;;;;5036281;28;20056;-35
2024/03/07 07:10:17;;;;;;;29.85;19.27;;;4.90;99.90;;;;;;5036476;28;20064;-36
2024/03/07 07:12:45;;;;;;;27.30;18.73;;;4.90;99.90;;;;;;5036585;28;20098;-35
2024/03/07 07:15:12;;;;;;;25.92;17.85;;;5.00;99.90;;;;;;5039386;28;20127;-35
2024/03/07 07:17:38;;;;;;;24.52;17.88;;;5.00;99.90;;;;;;5039277;28;20503;-34
2024/03/07 07:20:10;;;;;;;25.85;17.85;;;5.00;99.90;;;;;;5027516;28;20051;-36
2024/03/07 07:22:37;;;;;;;28.08;19.63;;;5.00;99.90;;;;;;5037719;28;20503;-35
2024/03/07 07:25:04;;;;;;;26.65;18.42;;;5.00;99.90;;;;;;5037536;28;20033;-35
2024/03/07 07:27:33;;;;;;;27.95;19.42;;;5.00;99.90;;;;;;5037994;28;20021;-34
2024/03/07 07:29:59;;;;;;;26.17;18.80;;;5.10;99.90;;;;;;5037856;28;20115;-34
2024/03/07 07:32:25;;;;;;;28.77;19.92;;;5.10;99.90;;;;;;5037743;28;20510;-32
2024/03/07 07:34:50;;;;;;;34.17;22.27;;;5.10;99.90;;;;;;5037575;28;20033;-36
2024/03/07 07:37:16;;;;;;;33.58;22.70;;;5.10;99.90;;;;;;5037908;28;20051;-32
2024/03/07 07:39:41;;;;;;;31.50;22.92;;;5.10;99.90;;;;;;5037303;28;20025;-35
2024/03/07 07:42:09;;;;;;;30.63;20.50;;;5.20;99.90;;;;;;5037067;28;20384;-35
2024/03/07 07:44:35;;;;;;;26.65;19.63;;;5.20;99.90;;;;;;5027352;28;20048;-37
2024/03/07 07:47:01;;;;;;;30.08;20.38;;;5.20;99.90;;;;;;5037656;28;20148;-36
2024/03/07 07:49:32;;;;;;;28.75;18.20;;;5.30;99.90;;;;;;5037209;28;20032;-34
2024/03/07 07:51:57;;;;;;;26.30;19.45;;;5.30;99.90;;;;;;5038729;28;20064;-33
2024/03/07 07:54:24;;;;;;;27.83;18.85;;;5.30;99.90;;;;;;5032076;28;20033;-31
2024/03/07 07:56:51;;;;;;;28.10;19.60;;;5.40;99.90;;;;;;5036661;28;20396;-32
2024/03/07 07:59:16;;;;;;;26.95;18.20;;;5.40;99.90;;;;;;5038754;28;20021;-36
2024/03/07 08:01:42;;;;;;;25.55;17.90;;;5.50;99.90;;;;;;5038605;28;20490;-31
2024/03/07 08:04:09;;;;;;;26.05;19.10;;;5.50;99.90;;;;;;5037500;28;20035;-34
2024/03/07 08:06:35;;;;;;;27.35;18.42;;;5.60;99.90;;;;;;5036212;28;20100;-31
2024/03/07 08:09:00;;;;;;;26.23;19.00;;;5.60;99.90;;;;;;5034133;28;20044;-36
2024/03/07 08:11:26;;;;;;;28.10;20.25;;;5.70;99.90;;;;;;5037766;28;20115;-35
2024/03/07 08:13:51;;;;;;;26.17;19.55;;;5.70;99.90;;;;;;5043233;28;20029;-35
2024/03/07 08:16:18;;;;;;;24.63;18.80;;;5.70;99.90;;;;;;5042215;28;20045;-34
2024/03/07 08:18:44;;;;;;;22.02;16.52;;;5.80;99.90;;;;;;5041662;28;20020;-34
2024/03/07 08:21:13;;;;;;;21.63;16.60;;;5.80;99.90;;;;;;5042928;28;20425;-35
2024/03/07 08:23:41;;;;;;;19.77;16.27;;;5.90;99.90;;;;;;5041875;28;20021;-32
2024/03/07 08:26:07;;;;;;;20.92;15.85;;;6.00;99.90;;;;;;5043017;28;20789;-34
2024/03/07 08:28:32;;;;;;;22.77;17.05;;;6.00;99.90;;;;;;5041145;28;20033;-36
2024/03/07 08:30:59;;;;;;;22.00;17.15;;;6.00;99.90;;;;;;5048792;28;20121;-35
2024/03/07 08:33:24;;;;;;;22.67;17.02;;;6.10;99.90;;;;;;5048712;28;20056;-33
2024/03/07 08:35:52;;;;;;;21.95;16.27;;;6.10;99.90;;;;;;5040572;28;20758;-35
2024/03/07 08:38:18;;;;;;;21.73;16.90;;;6.10;99.90;;;;;;5040651;28;20033;-35
2024/03/07 08:40:44;;;;;;;23.38;17.17;;;6.20;99.90;;;;;;5041827;28;20023;-31
2024/03/07 08:43:10;;;;;;;20.73;16.60;;;6.20;99.90;;;;;;5042606;28;20491;-35
2024/03/07 08:45:36;;;;;;;20.20;15.88;;;6.30;99.90;;;;;;5041096;28;20025;-35
2024/03/07 08:48:03;;;;;;;21.35;16.65;;;6.30;99.90;;;;;;5043114;28;20156;-33
2024/03/07 08:50:29;;;;;;;19.45;15.23;;;6.30;99.90;;;;;;5040603;28;20029;-32
2024/03/07 08:52:55;;;;;;;20.10;15.25;;;6.30;99.90;;;;;;5042006;28;20041;-35
2024/03/07 08:55:24;;;;;;;19.35;15.38;;;6.40;99.90;;;;;;5041527;28;20028;-34
2024/03/07 08:57:51;;;;;;;20.63;15.98;;;6.40;99.90;;;;;;5042019;28;20754;-35
2024/03/07 09:00:29;;;;;;;19.65;15.55;;;6.40;99.90;;;;;;5041217;28;20032;-36
2024/03/07 09:02:57;;;;;;;21.23;15.73;;;6.40;99.90;;;;;;5041199;28;20031;-34
2024/03/07 09:05:24;;;;;;;21.20;16.30;;;6.50;99.90;;;;;;5038917;28;20052;-35
2024/03/07 09:07:50;;;;;;;20.60;15.43;;;6.50;99.90;;;;;;5041010;28;20464;-37
2024/03/07 09:10:17;;;;;;;21.40;16.23;;;6.50;99.90;;;;;;5040790;28;20127;-34
2024/03/07 09:12:44;;;;;;;21.15;15.60;;;6.50;99.90;;;;;;5039742;28;20036;-33
2024/03/07 09:15:10;;;;;;;20.80;15.27;;;6.60;99.90;;;;;;5038766;28;20040;-34
2024/03/07 09:17:36;;;;;;;21.58;15.07;;;6.60;99.90;;;;;;5037135;28;20043;-36
2024/03/07 09:20:06;;;;;;;19.92;14.57;;;6.60;99.90;;;;;;5037118;28;20036;-35
2024/03/07 09:22:32;;;;;;;19.63;15.25;;;6.60;99.90;;;;;;5036934;28;20142;-32
2024/03/07 09:24:58;;;;;;;22.75;17.23;;;6.70;99.90;;;;;;5039788;28;20104;-33
2024/03/07 09:27:27;;;;;;;21.48;16.83;;;6.70;99.90;;;;;;5038305;28;20041;-34
2024/03/07 09:29:53;;;;;;;18.67;14.27;;;6.70;99.90;;;;;;5038983;28;20116;-38
2024/03/07 09:32:21;;;;;;;19.02;14.13;;;6.80;99.90;;;;;;5039727;28;20082;-35
2024/03/07 09:34:47;;;;;;;19.38;15.10;;;6.80;99.90;;;;;;5039729;28;20029;-35
2024/03/07 09:37:13;;;;;;;20.85;15.43;;;6.80;99.90;;;;;;5038410;28;20106;-35
2024/03/07 09:39:38;;;;;;;20.17;15.73;;;6.90;99.90;;;;;;5040229;28;20832;-33
2024/03/07 09:42:10;;;;;;;18.55;14.35;;;6.90;99.90;;;;;;5039588;28;20028;-34
2024/03/07 09:44:40;;;;;;;21.33;15.10;;;7.00;99.90;;;;;;5039440;28;20037;-35
2024/03/07 09:47:07;;;;;;;20.65;14.52;;;7.00;99.90;;;;;;5040438;28;20325;-35
2024/03/07 09:49:36;;;;;;;19.23;15.23;;;7.10;99.90;;;;;;5039008;28;20115;-32
2024/03/07 09:52:08;;;;;;;19.55;15.30;;;7.20;99.90;;;;;;5040137;28;20033;-34
2024/03/07 09:54:37;;;;;;;19.17;14.23;;;7.20;99.90;;;;;;5038748;28;21025;-36
2024/03/07 09:57:07;;;;;;;18.35;14.20;;;7.20;99.90;;;;;;5039049;28;20056;-33
2024/03/07 09:59:39;;;;;;;16.10;13.38;;;7.20;99.90;;;;;;5039919;28;20074;-33
2024/03/07 10:02:07;;;;;;;16.00;13.65;;;7.30;99.90;;;;;;5037926;28;20189;-30
2024/03/07 10:04:48;;;;;;;17.50;13.48;;;7.30;99.90;;;;;;5040039;28;20025;-34
2024/03/07 10:07:18;;;;;;;16.45;12.65;;;7.30;99.90;;;;;;5039699;28;20053;-31
2024/03/07 10:09:44;;;;;;;17.00;12.85;;;7.40;99.90;;;;;;5038969;28;20032;-34
2024/03/07 10:12:12;;;;;;;16.40;13.27;;;7.40;99.90;;;;;;5040620;28;20462;-37
2024/03/07 10:14:38;;;;;;;17.10;13.02;;;7.50;99.90;;;;;;5039541;28;20029;-33
2024/03/07 10:17:04;;;;;;;17.77;12.55;;;7.60;99.90;;;;;;5039805;28;20414;-36
2024/03/07 10:19:30;;;;;;;19.15;14.35;;;7.70;99.90;;;;;;5039457;28;20021;-33
2024/03/07 10:21:59;;;;;;;20.85;14.63;;;7.70;99.90;;;;;;5040719;28;20031;-37
2024/03/07 10:24:25;;;;;;;20.40;15.38;;;7.80;99.90;;;;;;5039731;28;20154;-29
2024/03/07 10:26:51;;;;;;;22.92;16.17;;;7.90;99.90;;;;;;5041315;28;20040;-34
2024/03/07 10:29:18;;;;;;;20.77;14.95;;;7.90;99.90;;;;;;5040369;28;20025;-32
2024/03/07 10:31:45;;;;;;;20.38;14.68;;;7.90;99.90;;;;;;5040350;28;20033;-31
2024/03/07 10:34:11;;;;;;;20.48;14.60;;;8.00;99.90;;;;;;5038980;28;20048;-34
2024/03/07 10:36:37;;;;;;;22.17;16.55;;;8.00;99.90;;;;;;5039536;28;20552;-34
2024/03/07 10:39:16;;;;;;;22.90;16.60;;;8.00;99.90;;;;;;5037271;28;20032;-34
2024/03/07 10:41:47;;;;;;;20.73;15.57;;;8.10;99.90;;;;;;5037348;28;20033;-36
2024/03/07 10:44:28;;;;;;;20.50;15.55;;;8.10;99.90;;;;;;5037271;28;20476;-32
2024/03/07 10:46:55;;;;;;;21.10;16.50;;;8.20;99.90;;;;;;5038182;28;20548;-34
2024/03/07 10:49:25;;;;;;;22.02;17.15;;;8.30;99.90;;;;;;5038682;28;20048;-36
2024/03/07 10:52:30;;;;;;;20.38;15.75;;;8.30;99.90;;;;;;5036822;28;20036;-36
2024/03/07 10:55:38;;;;;;;20.42;14.88;;;8.40;99.90;;;;;;5036032;28;20397;-36
2024/03/07 10:58:08;;;;;;;19.08;14.77;;;8.40;99.90;;;;;;5015639;28;20045;-36
2024/03/07 11:00:39;;;;;;;19.58;15.05;;;8.40;99.90;;;;;;5013903;28;20021;-33
2024/03/07 11:03:13;;;;;;;18.95;14.55;;;8.40;99.90;;;;;;5034001;28;20056;-35
2024/03/07 11:05:49;;;;;;;20.80;16.75;;;8.50;99.90;;;;;;5037839;28;20056;-34
2024/03/07 11:08:16;;;;;;;22.40;16.23;;;8.50;99.90;;;;;;5037783;28;20053;-35
2024/03/07 11:10:42;;;;;;;20.30;15.85;;;8.40;99.90;;;;;;5036736;28;20032;-33
2024/03/07 11:13:12;;;;;;;24.60;16.65;;;8.40;99.90;;;;;;5039757;28;20076;-33
2024/03/07 11:15:42;;;;;;;20.77;15.32;;;8.40;99.90;;;;;;5038729;28;20076;-37
2024/03/07 11:18:09;;;;;;;23.70;16.75;;;8.40;99.90;;;;;;5039831;28;20032;-35
2024/03/07 11:20:36;;;;;;;23.83;17.30;;;8.40;99.90;;;;;;5038961;28;20025;-33
2024/03/07 11:23:26;;;;;;;23.60;16.88;;;8.50;99.90;;;;;;5038063;28;20029;-35
2024/03/07 11:25:55;;;;;;;25.90;18.05;;;8.50;99.90;;;;;;5038311;28;20032;-35
2024/03/07 11:28:29;;;;;;;21.73;16.83;;;8.60;99.90;;;;;;5026525;28;20094;-34
2024/03/07 11:30:57;;;;;;;23.10;16.60;;;8.70;99.90;;;;;;5037767;28;20035;-34
2024/03/07 11:33:24;;;;;;;21.92;15.38;;;8.70;99.90;;;;;;5036789;28;20025;-37
2024/03/07 11:35:50;;;;;;;21.00;15.57;;;8.80;99.90;;;;;;5037409;28;20056;-36
2024/03/07 11:38:23;;;;;;;20.42;14.48;;;8.90;99.90;;;;;;5038284;28;20145;-29
2024/03/07 11:40:51;;;;;;;22.05;15.27;;;9.00;99.90;;;;;;5037826;28;20029;-31
2024/03/07 11:43:16;;;;;;;21.45;14.82;;;9.10;99.90;;;;;;5037147;28;20415;-33
2024/03/07 11:45:44;;;;;;;20.88;14.95;;;9.20;99.90;;;;;;5038080;28;20033;-35
2024/03/07 11:48:11;;;;;;;19.42;14.20;;;9.20;99.90;;;;;;5037112;28;20068;-30
2024/03/07 11:50:37;;;;;;;19.58;14.30;;;9.30;99.90;;;;;;5037397;28;20039;-33
2024/03/07 11:53:06;;;;;;;17.17;12.25;;;9.40;99.90;;;;;;5039319;28;20040;-30
2024/03/07 11:55:50;;;;;;;20.50;14.18;;;9.40;99.90;;;;;;5038313;28;20475;-33
2024/03/07 11:58:23;;;;;;;22.10;15.60;;;9.50;99.90;;;;;;5030069;28;20033;-31
2024/03/07 12:00:51;;;;;;;18.15;13.77;;;9.50;99.90;;;;;;5037800;28;20166;-35
2024/03/07 12:03:22;;;;;;;18.95;14.60;;;9.50;99.90;;;;;;5038674;28;20037;-33
2024/03/07 12:05:53;;;;;;;20.13;15.10;;;9.40;99.90;;;;;;5039437;28;20828;-33
2024/03/07 12:08:22;;;;;;;19.48;14.35;;;9.40;99.90;;;;;;5035221;28;20098;-33
2024/03/07 12:10:51;;;;;;;20.13;14.55;;;9.40;99.90;;;;;;5039004;28;20615;-33
2024/03/07 12:13:20;;;;;;;17.98;13.13;;;9.40;99.90;;;;;;5038151;28;20112;-35
2024/03/07 12:15:47;;;;;;;18.05;13.30;;;9.40;99.90;;;;;;5037612;28;20699;-32
2024/03/07 12:18:14;;;;;;;18.80;13.93;;;9.40;99.90;;;;;;5039438;28;20025;-35
2024/03/07 12:20:40;;;;;;;18.05;14.20;;;9.50;99.90;;;;;;5037692;28;20754;-35
2024/03/07 12:23:08;;;;;;;21.60;14.38;;;9.50;99.90;;;;;;5037561;28;20776;-34
2024/03/07 12:25:42;;;;;;;19.52;14.15;;;9.50;99.90;;;;;;5036384;28;20472;-34
2024/03/07 12:28:17;;;;;;;17.75;13.60;;;9.40;99.90;;;;;;5035510;28;20059;-34
2024/03/07 12:30:56;;;;;;;14.85;12.02;;;9.30;99.90;;;;;;5036734;28;20083;-34
2024/03/07 12:33:25;;;;;;;16.02;12.38;;;9.30;99.90;;;;;;5036712;28;20021;-34
2024/03/07 12:35:52;;;;;;;17.42;12.60;;;9.40;99.90;;;;;;5038584;28;20057;-35
2024/03/07 12:38:19;;;;;;;16.52;12.82;;;9.50;99.90;;;;;;5037667;28;20024;-33
2024/03/07 12:40:46;;;;;;;18.10;12.55;;;9.60;99.90;;;;;;5037565;28;20043;-34